Time;durP1;ratioP1;P1;durP2;ratioP2;P2;SDS_P1;SDS_P2;PMS_P1;PMS_P2;Temp;Humidity;BMP_temperature;BMP_pressure;BME280_temperature;BME280_humidity;BME280_pressure;Samples;Min_cycle;Max_cycle;Signal;HPM_P1;HPM_P2
2021/12/16 00:02:17;;;;;;;46.10;20.83;;;;;;;;;;4982523;28;20164;-71
2021/12/16 00:07:39;;;;;;;41.88;19.35;;;;;;;;;;4984923;28;20123;-72
2021/12/16 00:10:25;;;;;;;47.35;20.20;;;;;;;;;;4987389;28;20805;-72
2021/12/16 00:32:35;;;;;;;42.75;20.00;;;;;;;;;;5006411;28;20237;-71
2021/12/16 00:34:46;;;;;;;40.72;19.67;;;;;;;;;;5005969;28;20064;-72
2021/12/16 00:37:11;;;;;;;46.72;21.15;;;;;;;;;;5005615;28;20060;-72
2021/12/16 00:39:36;;;;;;;47.30;21.65;;;;;;;;;;5005524;28;20038;-73
2021/12/16 00:42:08;;;;;;;47.33;22.02;;;;;;;;;;5005531;28;20117;-72
2021/12/16 00:47:25;;;;;;;47.33;20.88;;;;;;;;;;4996079;28;20069;-72
2021/12/16 00:49:50;;;;;;;47.92;21.08;;;;;;;;;;4997309;28;20026;-71
2021/12/16 00:55:15;;;;;;;52.75;21.98;;;;;;;;;;4988537;28;20574;-71
2021/12/16 00:57:42;;;;;;;52.25;22.17;;;;;;;;;;4988865;28;20113;-71
2021/12/16 01:00:11;;;;;;;57.13;23.05;;;;;;;;;;4987966;28;20558;-72
2021/12/16 01:03:01;;;;;;;57.88;23.02;;;;;;;;;;4987674;28;20073;-72
2021/12/16 01:08:29;;;;;;;59.10;23.73;;;;;;;;;;4991359;28;20101;-72
2021/12/16 01:41:26;;;;;;;68.75;26.13;;;;;;;;;;4990367;28;20408;-71
2021/12/16 01:46:42;;;;;;;64.53;24.63;;;;;;;;;;4991101;28;20029;-71
2021/12/16 01:49:26;;;;;;;60.28;24.50;;;;;;;;;;4988746;28;20037;-71
2021/12/16 01:54:40;;;;;;;67.90;26.92;;;;;;;;;;4991736;28;20512;-71
2021/12/16 01:57:12;;;;;;;65.97;25.85;;;;;;;;;;4991839;28;20018;-70
2021/12/16 01:59:40;;;;;;;66.45;25.75;;;;;;;;;;4991206;28;20023;-71
2021/12/16 02:02:31;;;;;;;59.30;24.27;;;;;;;;;;4984655;28;20025;-71
2021/12/16 02:05:19;;;;;;;58.28;23.58;;;;;;;;;;4986605;28;20038;-71
2021/12/16 02:10:11;;;;;;;58.38;24.00;;;;;;;;;;4991367;28;20133;-70
2021/12/16 02:12:47;;;;;;;52.42;22.50;;;;;;;;;;4991642;28;20038;-70
2021/12/16 02:31:57;;;;;;;65.70;26.10;;;;;;;;;;4988069;28;20163;-71
2021/12/16 02:36:53;;;;;;;59.80;25.50;;;;;;;;;;4985397;28;20081;-71
2021/12/16 02:39:21;;;;;;;56.10;22.15;;;;;;;;;;4987480;28;20027;-71
2021/12/16 02:41:48;;;;;;;56.42;23.33;;;;;;;;;;4987653;28;20030;-70
2021/12/16 02:49:39;;;;;;;48.20;19.65;;;;;;;;;;4976635;28;20081;-71
2021/12/16 02:52:05;;;;;;;39.67;18.75;;;;;;;;;;4985590;28;20039;-71
2021/12/16 02:54:31;;;;;;;47.00;20.02;;;;;;;;;;4988027;28;20029;-72
2021/12/16 02:56:56;;;;;;;44.17;19.20;;;;;;;;;;4987352;28;20039;-70
2021/12/16 02:59:26;;;;;;;44.88;18.92;;;;;;;;;;4988479;28;20023;-70
2021/12/16 03:01:53;;;;;;;47.42;19.85;;;;;;;;;;4986664;28;20100;-71
2021/12/16 03:04:19;;;;;;;46.15;20.70;;;;;;;;;;4986512;28;20465;-71
2021/12/16 03:06:46;;;;;;;44.08;19.65;;;;;;;;;;4988134;28;20038;-71
2021/12/16 03:09:13;;;;;;;43.65;19.20;;;;;;;;;;4989633;28;20049;-70
2021/12/16 03:11:50;;;;;;;46.97;19.98;;;;;;;;;;4989139;28;20037;-70
2021/12/16 03:19:17;;;;;;;51.92;20.67;;;;;;;;;;4990187;28;20050;-71
2021/12/16 03:21:48;;;;;;;49.38;20.75;;;;;;;;;;4990540;28;20034;-70
2021/12/16 03:34:43;;;;;;;55.53;23.52;;;;;;;;;;4987279;28;20052;-71
2021/12/16 03:37:21;;;;;;;58.42;23.85;;;;;;;;;;4986351;28;20045;-71
2021/12/16 03:39:47;;;;;;;66.97;26.43;;;;;;;;;;4987173;28;20033;-72
2021/12/16 03:42:13;;;;;;;63.75;26.02;;;;;;;;;;4986124;28;20113;-72
2021/12/16 03:44:52;;;;;;;65.07;26.50;;;;;;;;;;4986741;28;20101;-72
2021/12/16 03:47:19;;;;;;;60.40;25.87;;;;;;;;;;4986371;28;20180;-71
2021/12/16 03:49:44;;;;;;;61.47;27.10;;;;;;;;;;4986412;28;20473;-71
2021/12/16 03:52:09;;;;;;;59.38;26.75;;;;;;;;;;4986389;28;20038;-71
2021/12/16 03:54:41;;;;;;;59.67;26.58;;;;;;;;;;4986718;28;20045;-72
2021/12/16 03:57:09;;;;;;;60.53;26.73;;;;;;;;;;4987191;28;20109;-71
2021/12/16 03:59:35;;;;;;;63.83;26.83;;;;;;;;;;4979867;28;20045;-73
2021/12/16 04:02:03;;;;;;;63.05;27.48;;;;;;;;;;4986660;28;20048;-73
2021/12/16 04:04:29;;;;;;;66.03;28.50;;;;;;;;;;4987179;28;20126;-72
2021/12/16 04:06:54;;;;;;;71.38;30.10;;;;;;;;;;4985604;28;20089;-71
2021/12/16 04:09:19;;;;;;;67.60;29.02;;;;;;;;;;4981391;28;20057;-71
2021/12/16 04:11:50;;;;;;;72.53;31.02;;;;;;;;;;4985698;28;20030;-72
2021/12/16 04:14:17;;;;;;;75.35;30.35;;;;;;;;;;4987963;28;20026;-71
2021/12/16 04:16:45;;;;;;;67.53;28.70;;;;;;;;;;4988955;28;20061;-71
2021/12/16 04:19:14;;;;;;;67.53;29.17;;;;;;;;;;4989317;28;20062;-72
2021/12/16 04:21:41;;;;;;;59.77;26.50;;;;;;;;;;4990194;28;20093;-71
2021/12/16 04:24:06;;;;;;;52.72;23.05;;;;;;;;;;4988450;28;20023;-70
2021/12/16 04:26:33;;;;;;;61.05;25.45;;;;;;;;;;4987605;28;20022;-71
2021/12/16 04:28:58;;;;;;;58.50;25.30;;;;;;;;;;4988848;28;20114;-71
2021/12/16 04:31:24;;;;;;;53.22;23.60;;;;;;;;;;4988625;28;20054;-72
2021/12/16 04:33:50;;;;;;;55.13;24.27;;;;;;;;;;4988496;28;20069;-71
2021/12/16 04:36:15;;;;;;;55.92;23.88;;;;;;;;;;4987524;28;20482;-71
2021/12/16 04:38:42;;;;;;;49.78;21.98;;;;;;;;;;4989286;28;20422;-72
2021/12/16 04:41:10;;;;;;;42.97;19.67;;;;;;;;;;4988438;28;20041;-72
2021/12/16 04:43:40;;;;;;;44.40;18.27;;;;;;;;;;4986706;28;20022;-72
2021/12/16 04:46:09;;;;;;;42.75;19.45;;;;;;;;;;4988231;28;20014;-70
2021/12/16 04:48:35;;;;;;;41.83;18.23;;;;;;;;;;4985290;28;20425;-70
2021/12/16 04:51:01;;;;;;;40.63;17.58;;;;;;;;;;4991191;28;20129;-71
2021/12/16 04:53:26;;;;;;;43.75;18.88;;;;;;;;;;4988004;28;20018;-71
2021/12/16 04:55:51;;;;;;;43.20;18.45;;;;;;;;;;4987597;28;20058;-71
2021/12/16 04:58:17;;;;;;;40.50;17.42;;;;;;;;;;4987890;28;20101;-71
2021/12/16 05:00:42;;;;;;;43.38;18.95;;;;;;;;;;4988390;28;20022;-70
2021/12/16 05:03:07;;;;;;;38.22;17.08;;;;;;;;;;4986376;28;20129;-71
2021/12/16 05:05:33;;;;;;;40.35;18.15;;;;;;;;;;4989004;28;20066;-71
2021/12/16 05:07:58;;;;;;;39.50;18.27;;;;;;;;;;4987065;28;20061;-71
2021/12/16 05:10:23;;;;;;;41.08;17.83;;;;;;;;;;4988397;28;20386;-72
2021/12/16 05:12:50;;;;;;;41.78;17.92;;;;;;;;;;4988039;28;20030;-72
2021/12/16 05:15:21;;;;;;;38.28;18.27;;;;;;;;;;4987003;28;20683;-71
2021/12/16 05:17:50;;;;;;;38.47;16.92;;;;;;;;;;4988645;28;20049;-71
2021/12/16 05:20:17;;;;;;;38.08;18.02;;;;;;;;;;4989776;28;20101;-71
2021/12/16 05:25:41;;;;;;;45.25;18.20;;;;;;;;;;4983907;28;20474;-70
2021/12/16 05:28:06;;;;;;;38.92;17.58;;;;;;;;;;4988756;28;20117;-71
2021/12/16 05:30:32;;;;;;;42.67;18.13;;;;;;;;;;4986388;28;20833;-71
2021/12/16 05:32:58;;;;;;;38.33;16.23;;;;;;;;;;4986727;28;20022;-71
2021/12/16 05:35:24;;;;;;;32.85;15.38;;;;;;;;;;4987512;28;20041;-70
2021/12/16 05:37:49;;;;;;;32.25;14.23;;;;;;;;;;4981376;28;20022;-70
2021/12/16 05:40:16;;;;;;;31.02;14.05;;;;;;;;;;4987739;28;20030;-71
2021/12/16 05:42:42;;;;;;;29.50;13.30;;;;;;;;;;4987816;28;20080;-71
2021/12/16 05:45:08;;;;;;;32.47;14.13;;;;;;;;;;4987203;28;20120;-72
2021/12/16 05:47:33;;;;;;;29.35;13.52;;;;;;;;;;4985587;28;20033;-71
2021/12/16 05:49:59;;;;;;;26.73;12.82;;;;;;;;;;4988298;28;20117;-71
2021/12/16 05:52:24;;;;;;;30.40;13.57;;;;;;;;;;4991521;28;20549;-72
2021/12/16 05:54:49;;;;;;;28.88;13.23;;;;;;;;;;4991356;28;20049;-70
2021/12/16 05:57:14;;;;;;;24.58;11.25;;;;;;;;;;4990533;28;20446;-71
2021/12/16 05:59:39;;;;;;;23.00;11.18;;;;;;;;;;4991452;28;20022;-71
2021/12/16 06:02:05;;;;;;;26.35;11.63;;;;;;;;;;4990925;28;20026;-71
2021/12/16 06:04:30;;;;;;;22.83;10.88;;;;;;;;;;4990555;28;20037;-71
2021/12/16 06:06:56;;;;;;;25.67;12.52;;;;;;;;;;4991048;28;20042;-70
2021/12/16 06:09:21;;;;;;;23.42;11.65;;;;;;;;;;4991799;28;20045;-70
2021/12/16 06:11:48;;;;;;;24.17;11.73;;;;;;;;;;4990882;28;20474;-71
2021/12/16 06:27:39;;;;;;;25.40;11.82;;;;;;;;;;4985526;28;20065;-70
2021/12/16 06:30:05;;;;;;;24.40;11.75;;;;;;;;;;4991111;28;20030;-71
2021/12/16 06:32:30;;;;;;;25.10;11.57;;;;;;;;;;4991233;28;20030;-71
2021/12/16 06:34:56;;;;;;;20.75;10.27;;;;;;;;;;4990595;28;20042;-71
2021/12/16 06:37:22;;;;;;;26.83;12.27;;;;;;;;;;4987818;28;20073;-71
2021/12/16 06:39:47;;;;;;;27.92;13.15;;;;;;;;;;4987543;28;20112;-71
2021/12/16 06:42:13;;;;;;;28.45;13.07;;;;;;;;;;4991035;28;20494;-72
2021/12/16 06:44:51;;;;;;;28.50;12.63;;;;;;;;;;4991594;28;20451;-71
2021/12/16 06:47:22;;;;;;;27.98;12.68;;;;;;;;;;4987354;28;20099;-71
2021/12/16 06:49:50;;;;;;;32.67;15.13;;;;;;;;;;4989475;28;20019;-71
2021/12/16 06:52:18;;;;;;;32.95;14.90;;;;;;;;;;4992783;28;20042;-72
2021/12/16 06:55:01;;;;;;;34.72;14.90;;;;;;;;;;4989826;28;20065;-71
2021/12/16 06:57:38;;;;;;;34.03;15.00;;;;;;;;;;4988555;28;20385;-71
2021/12/16 07:00:11;;;;;;;35.20;14.85;;;;;;;;;;4991477;28;20393;-71
2021/12/16 07:05:22;;;;;;;33.42;13.88;;;;;;;;;;4991748;28;20489;-71
2021/12/16 07:07:48;;;;;;;30.60;13.20;;;;;;;;;;4990982;28;20196;-70
2021/12/16 07:10:14;;;;;;;32.17;14.60;;;;;;;;;;4989787;28;20132;-71
2021/12/16 07:12:46;;;;;;;27.80;12.82;;;;;;;;;;4990479;28;20034;-71
2021/12/16 07:15:12;;;;;;;30.17;13.57;;;;;;;;;;4985523;28;20033;-67
2021/12/16 07:17:38;;;;;;;30.38;13.30;;;;;;;;;;4992325;28;20511;-67
2021/12/16 07:20:05;;;;;;;29.15;13.05;;;;;;;;;;4990272;28;20025;-69
2021/12/16 07:22:30;;;;;;;28.25;13.63;;;;;;;;;;4989922;28;20090;-70
2021/12/16 07:24:55;;;;;;;28.92;12.82;;;;;;;;;;4990673;28;20377;-68
2021/12/16 07:27:20;;;;;;;25.65;12.45;;;;;;;;;;4988448;28;20026;-69
2021/12/16 07:29:45;;;;;;;26.42;12.63;;;;;;;;;;4990797;28;20086;-68
2021/12/16 07:32:11;;;;;;;25.42;11.18;;;;;;;;;;4990248;28;20030;-69
2021/12/16 07:34:36;;;;;;;24.10;12.23;;;;;;;;;;4990509;28;20102;-69
2021/12/16 07:37:04;;;;;;;27.45;13.20;;;;;;;;;;4990371;28;20034;-68
2021/12/16 07:39:37;;;;;;;25.85;12.15;;;;;;;;;;4990801;28;20874;-68
2021/12/16 07:42:03;;;;;;;23.55;10.45;;;;;;;;;;4991000;28;20088;-67
2021/12/16 07:44:28;;;;;;;22.30;11.25;;;;;;;;;;4990317;28;20034;-68
2021/12/16 07:46:55;;;;;;;22.85;10.52;;;;;;;;;;4990323;28;20113;-69
2021/12/16 07:49:25;;;;;;;22.48;10.85;;;;;;;;;;4990764;28;20030;-69
2021/12/16 07:51:51;;;;;;;20.20;10.27;;;;;;;;;;4987670;28;20517;-69
2021/12/16 07:54:17;;;;;;;23.48;11.00;;;;;;;;;;4990106;28;20053;-69
2021/12/16 07:56:43;;;;;;;20.13;10.65;;;;;;;;;;4991222;28;20038;-69
2021/12/16 07:59:08;;;;;;;19.27;10.10;;;;;;;;;;4988249;28;20137;-68
2021/12/16 08:01:38;;;;;;;20.25;10.05;;;;;;;;;;4988517;28;20031;-68
2021/12/16 08:04:04;;;;;;;20.10;10.43;;;;;;;;;;4989965;28;20026;-69
2021/12/16 08:06:29;;;;;;;20.65;10.18;;;;;;;;;;4988702;28;20764;-68
2021/12/16 08:08:59;;;;;;;21.00;10.85;;;;;;;;;;4990328;28;20014;-69
2021/12/16 08:11:26;;;;;;;20.13;10.38;;;;;;;;;;4988237;28;20046;-69
2021/12/16 08:13:51;;;;;;;22.05;11.23;;;;;;;;;;4987957;28;20030;-69
2021/12/16 08:16:22;;;;;;;19.77;9.95;;;;;;;;;;4984256;28;20481;-69
2021/12/16 08:18:47;;;;;;;19.08;9.77;;;;;;;;;;4989558;28;20023;-69
2021/12/16 08:21:13;;;;;;;16.75;9.23;;;;;;;;;;4994894;28;20112;-68
2021/12/16 08:23:38;;;;;;;18.25;9.65;;;;;;;;;;4989870;28;20105;-68
2021/12/16 08:26:03;;;;;;;20.02;9.57;;;;;;;;;;4990042;28;20022;-68
2021/12/16 08:28:28;;;;;;;18.75;9.23;;;;;;;;;;4989745;28;20361;-68
2021/12/16 08:30:54;;;;;;;20.27;10.23;;;;;;;;;;4990032;28;20027;-69
2021/12/16 08:33:19;;;;;;;20.92;10.10;;;;;;;;;;4989490;28;20026;-69
2021/12/16 08:35:46;;;;;;;20.45;9.95;;;;;;;;;;4989911;28;20137;-68
2021/12/16 08:38:12;;;;;;;16.85;8.43;;;;;;;;;;4989317;28;20015;-68
2021/12/16 08:40:39;;;;;;;16.17;8.70;;;;;;;;;;4989574;28;20532;-68
2021/12/16 08:43:05;;;;;;;16.60;8.85;;;;;;;;;;4989596;28;20018;-68
2021/12/16 08:45:31;;;;;;;16.85;9.13;;;;;;;;;;4989290;28;20376;-68
2021/12/16 08:47:58;;;;;;;15.13;8.32;;;;;;;;;;4989776;28;20439;-68
2021/12/16 08:50:25;;;;;;;15.50;7.70;;;;;;;;;;4987403;28;20034;-68
2021/12/16 08:52:50;;;;;;;16.42;8.48;;;;;;;;;;4989360;28;20018;-68
2021/12/16 08:55:15;;;;;;;11.00;5.78;;;;;;;;;;4989133;28;20049;-69
2021/12/16 08:57:41;;;;;;;17.20;8.13;;;;;;;;;;4989351;28;20033;-68
2021/12/16 09:00:09;;;;;;;14.00;7.72;;;;;;;;;;4989490;28;20033;-68
2021/12/16 09:02:34;;;;;;;11.80;6.95;;;;;;;;;;4989138;28;20034;-68
2021/12/16 09:05:00;;;;;;;16.13;8.55;;;;;;;;;;4989141;28;20022;-68
2021/12/16 09:07:25;;;;;;;15.88;8.75;;;;;;;;;;4989089;28;20050;-68
2021/12/16 09:09:50;;;;;;;20.73;9.90;;;;;;;;;;4988930;28;20033;-69
2021/12/16 09:14:58;;;;;;;16.98;9.30;;;;;;;;;;4989398;28;20033;-68
2021/12/16 09:17:23;;;;;;;17.80;10.07;;;;;;;;;;4989117;28;20035;-68
2021/12/16 09:19:51;;;;;;;18.60;9.82;;;;;;;;;;4988909;28;20034;-68
2021/12/16 09:22:17;;;;;;;16.05;9.48;;;;;;;;;;4994544;28;20041;-69
2021/12/16 09:24:43;;;;;;;17.92;9.52;;;;;;;;;;4988961;28;20014;-69
2021/12/16 09:27:08;;;;;;;15.88;8.25;;;;;;;;;;4990011;28;20501;-69
2021/12/16 09:29:34;;;;;;;15.10;8.25;;;;;;;;;;4992744;28;20022;-69
2021/12/16 09:32:02;;;;;;;13.30;7.78;;;;;;;;;;4993264;28;20045;-70
2021/12/16 09:34:27;;;;;;;14.48;8.35;;;;;;;;;;4992604;28;20044;-69
2021/12/16 09:36:52;;;;;;;12.60;7.57;;;;;;;;;;4992907;28;20019;-70
2021/12/16 09:39:21;;;;;;;13.30;7.13;;;;;;;;;;4988760;28;20026;-69
2021/12/16 09:41:47;;;;;;;15.45;8.38;;;;;;;;;;4992881;28;20026;-70
2021/12/16 09:44:13;;;;;;;15.05;7.82;;;;;;;;;;4992983;28;20051;-69
2021/12/16 09:46:40;;;;;;;14.32;7.20;;;;;;;;;;4983479;28;20069;-68
2021/12/16 09:49:05;;;;;;;13.38;7.13;;;;;;;;;;4980690;28;20096;-68
2021/12/16 09:51:34;;;;;;;12.10;7.07;;;;;;;;;;4990514;28;20038;-69
2021/12/16 09:54:01;;;;;;;11.13;6.75;;;;;;;;;;4992546;28;20011;-70
2021/12/16 09:56:26;;;;;;;10.95;6.38;;;;;;;;;;4992840;28;20092;-68
2021/12/16 09:58:52;;;;;;;8.93;5.53;;;;;;;;;;4992451;28;20022;-68
2021/12/16 10:01:18;;;;;;;11.48;5.57;;;;;;;;;;4992601;28;20024;-68
2021/12/16 10:03:45;;;;;;;10.02;5.90;;;;;;;;;;4992010;28;20136;-69
2021/12/16 10:06:10;;;;;;;9.27;5.63;;;;;;;;;;4992636;28;20064;-69
2021/12/16 10:08:36;;;;;;;9.57;6.00;;;;;;;;;;4991468;28;20557;-69
2021/12/16 10:11:02;;;;;;;11.15;6.50;;;;;;;;;;4991634;28;20038;-68
2021/12/16 10:13:40;;;;;;;9.40;6.03;;;;;;;;;;4991839;28;20019;-69
2021/12/16 10:18:31;;;;;;;9.45;5.95;;;;;;;;;;4992112;28;20034;-68
2021/12/16 10:20:58;;;;;;;9.32;5.13;;;;;;;;;;4997102;28;20069;-69
2021/12/16 10:23:26;;;;;;;9.20;6.15;;;;;;;;;;4992000;28;20115;-68
2021/12/16 10:25:58;;;;;;;8.95;5.38;;;;;;;;;;4991944;28;20465;-67
2021/12/16 10:28:25;;;;;;;10.25;5.20;;;;;;;;;;4991808;28;20023;-67
2021/12/16 10:30:53;;;;;;;8.32;4.85;;;;;;;;;;4991927;28;20049;-70
2021/12/16 10:33:18;;;;;;;10.05;5.55;;;;;;;;;;4991792;28;20115;-68
2021/12/16 10:35:47;;;;;;;8.70;5.13;;;;;;;;;;4991963;28;20106;-69
2021/12/16 10:38:13;;;;;;;9.43;5.40;;;;;;;;;;4991239;28;20063;-69
2021/12/16 10:40:43;;;;;;;8.88;4.80;;;;;;;;;;4991752;28;20041;-68
2021/12/16 10:43:13;;;;;;;9.15;5.85;;;;;;;;;;4991337;28;20022;-69
2021/12/16 10:45:45;;;;;;;11.23;7.15;;;;;;;;;;4991541;28;20030;-69
2021/12/16 10:48:37;;;;;;;11.23;6.50;;;;;;;;;;4991603;28;20080;-69
2021/12/16 10:51:19;;;;;;;10.65;6.63;;;;;;;;;;4993367;28;20045;-69
2021/12/16 10:53:50;;;;;;;10.35;6.75;;;;;;;;;;4991385;28;20033;-68
2021/12/16 10:56:16;;;;;;;9.77;6.72;;;;;;;;;;4991308;28;20026;-68
2021/12/16 10:58:51;;;;;;;11.43;6.07;;;;;;;;;;4991461;28;20026;-68
2021/12/16 11:01:28;;;;;;;10.25;6.03;;;;;;;;;;4991429;28;20018;-68
2021/12/16 11:03:53;;;;;;;11.50;6.10;;;;;;;;;;4991427;28;20023;-69
2021/12/16 11:06:26;;;;;;;10.05;6.07;;;;;;;;;;4991441;28;20095;-68
2021/12/16 11:08:51;;;;;;;9.85;5.15;;;;;;;;;;4989296;28;20050;-68
2021/12/16 11:11:24;;;;;;;8.63;5.30;;;;;;;;;;4991430;28;20097;-69
2021/12/16 11:13:49;;;;;;;7.68;4.65;;;;;;;;;;4991246;28;20077;-69
2021/12/16 11:16:28;;;;;;;10.40;5.32;;;;;;;;;;4991231;28;20030;-69
2021/12/16 11:18:53;;;;;;;8.55;5.18;;;;;;;;;;4991268;28;20434;-68
2021/12/16 11:21:18;;;;;;;7.95;5.00;;;;;;;;;;4995565;28;20042;-69
2021/12/16 11:23:44;;;;;;;7.47;4.43;;;;;;;;;;4991239;28;20153;-68
2021/12/16 11:26:12;;;;;;;6.93;4.53;;;;;;;;;;4990637;28;20023;-68
2021/12/16 11:28:38;;;;;;;9.88;4.88;;;;;;;;;;4990907;28;20018;-69
2021/12/16 11:31:07;;;;;;;8.20;4.97;;;;;;;;;;4990348;28;20084;-68
2021/12/16 11:33:34;;;;;;;7.28;4.60;;;;;;;;;;4990628;28;20748;-69
2021/12/16 11:36:02;;;;;;;8.00;4.63;;;;;;;;;;4990860;28;20015;-69
2021/12/16 11:38:27;;;;;;;7.03;4.68;;;;;;;;;;4990865;28;20479;-68
2021/12/16 11:40:58;;;;;;;7.54;5.08;;;;;;;;;;4990659;28;20026;-68
2021/12/16 11:43:35;;;;;;;6.90;4.40;;;;;;;;;;4990467;28;20019;-69
2021/12/16 11:46:00;;;;;;;9.07;5.05;;;;;;;;;;4990215;28;20109;-68
2021/12/16 11:48:27;;;;;;;7.40;4.53;;;;;;;;;;4990535;28;20098;-68
2021/12/16 11:51:01;;;;;;;6.82;4.18;;;;;;;;;;4990618;28;20034;-69
2021/12/16 11:53:34;;;;;;;6.93;4.32;;;;;;;;;;4990013;28;20022;-68
2021/12/16 11:55:59;;;;;;;7.20;4.18;;;;;;;;;;4989776;28;20425;-69
2021/12/16 11:58:30;;;;;;;7.05;4.05;;;;;;;;;;4990665;28;20072;-70
2021/12/16 12:00:58;;;;;;;7.18;4.60;;;;;;;;;;4990186;28;20030;-68
2021/12/16 12:03:31;;;;;;;7.82;4.70;;;;;;;;;;4989823;28;20549;-70
2021/12/16 12:05:57;;;;;;;8.95;4.78;;;;;;;;;;4990049;28;20030;-68
2021/12/16 12:08:31;;;;;;;7.93;4.57;;;;;;;;;;4990073;28;20046;-68
2021/12/16 12:11:02;;;;;;;7.75;4.60;;;;;;;;;;4990048;28;20030;-68
2021/12/16 12:13:35;;;;;;;9.52;4.80;;;;;;;;;;4990198;28;20031;-68
2021/12/16 12:16:05;;;;;;;9.27;5.32;;;;;;;;;;4989568;28;20077;-68
2021/12/16 12:18:32;;;;;;;8.77;5.40;;;;;;;;;;4989846;28;20030;-68
2021/12/16 12:21:15;;;;;;;8.95;5.47;;;;;;;;;;4984778;28;20506;-69
2021/12/16 12:23:41;;;;;;;9.43;5.38;;;;;;;;;;4989603;28;20026;-69
2021/12/16 12:26:06;;;;;;;9.48;4.97;;;;;;;;;;4989662;28;20540;-68
2021/12/16 12:28:31;;;;;;;8.35;4.95;;;;;;;;;;4989785;28;20429;-68
2021/12/16 12:30:56;;;;;;;9.00;5.35;;;;;;;;;;4988972;28;20085;-68
2021/12/16 12:33:22;;;;;;;9.85;5.20;;;;;;;;;;4989750;28;20024;-68
2021/12/16 12:35:47;;;;;;;7.05;4.68;;;;;;;;;;4989714;28;20034;-68
2021/12/16 12:38:12;;;;;;;7.13;5.10;;;;;;;;;;4988893;28;20030;-64
2021/12/16 12:40:38;;;;;;;9.45;4.95;;;;;;;;;;4986523;28;20386;-63
2021/12/16 12:43:05;;;;;;;8.13;4.75;;;;;;;;;;4988733;28;20026;-64
2021/12/16 12:45:34;;;;;;;8.10;5.10;;;;;;;;;;4988218;28;20465;-64
2021/12/16 12:47:59;;;;;;;7.73;5.00;;;;;;;;;;4989048;28;20474;-65
2021/12/16 12:50:27;;;;;;;9.32;4.88;;;;;;;;;;4989919;28;20319;-65
2021/12/16 12:52:53;;;;;;;7.53;5.07;;;;;;;;;;4988191;28;20033;-65
2021/12/16 12:55:22;;;;;;;8.00;4.78;;;;;;;;;;4986845;28;20033;-65
2021/12/16 12:57:47;;;;;;;7.50;4.53;;;;;;;;;;4982568;28;20084;-65
2021/12/16 13:00:24;;;;;;;9.10;5.13;;;;;;;;;;4988464;28;20121;-65
2021/12/16 13:02:54;;;;;;;14.85;5.65;;;;;;;;;;4988921;28;20030;-64
2021/12/16 13:05:22;;;;;;;8.10;4.70;;;;;;;;;;4988640;28;20018;-65
2021/12/16 13:07:55;;;;;;;6.28;4.32;;;;;;;;;;4988427;28;20054;-64
2021/12/16 13:10:23;;;;;;;6.47;4.18;;;;;;;;;;4985799;28;20042;-62
2021/12/16 13:12:59;;;;;;;5.30;3.42;;;;;;;;;;4975566;28;20035;-63
2021/12/16 13:15:36;;;;;;;6.50;3.72;;;;;;;;;;4987579;28;20041;-63
2021/12/16 13:23:30;;;;;;;;;;;;;;;;;;4985371;28;20117;-64
2021/12/16 13:28:52;;;;;;;5.93;3.70;;;;;;;;;;4984100;28;20114;-63
2021/12/16 13:34:26;;;;;;;5.63;3.47;;;;;;;;;;5009382;28;20125;-65
2021/12/16 13:36:56;;;;;;;5.85;3.42;;;;;;;;;;5005597;28;20045;-66
2021/12/16 13:39:23;;;;;;;4.97;3.17;;;;;;;;;;5002563;28;20109;-66
2021/12/16 13:41:53;;;;;;;6.35;3.45;;;;;;;;;;5002583;28;20057;-65
2021/12/16 13:44:18;;;;;;;7.68;4.00;;;;;;;;;;5005654;28;20198;-64
2021/12/16 13:47:00;;;;;;;5.95;3.50;;;;;;;;;;5005521;28;20034;-65
2021/12/16 14:04:04;;;;;;;4.85;3.00;;;;;;;;;;5003740;28;20029;-64
2021/12/16 14:07:12;;;;;;;5.90;3.58;;;;;;;;;;5001595;28;20025;-64
2021/12/16 14:09:37;;;;;;;7.03;3.60;;;;;;;;;;5004697;28;20042;-64
2021/12/16 14:13:58;;;;;;;5.25;3.47;;;;;;;;;;4992878;28;20403;-64
2021/12/16 14:15:16;;;;;;;6.13;3.58;;;;;;;;;;4992029;28;20030;-64
2021/12/16 14:17:50;;;;;;;4.30;2.95;;;;;;;;;;4990693;28;20033;-67
2021/12/16 14:23:31;;;;;;;4.93;3.00;;;;;;;;;;4990911;28;20060;-65
2021/12/16 14:31:49;;;;;;;6.05;3.22;;;;;;;;;;4994533;28;20085;-65
2021/12/16 14:45:57;;;;;;;4.10;2.53;;;;;;;;;;4930977;29;20038;-66
2021/12/16 14:48:28;;;;;;;4.15;2.58;;;;;;;;;;4930741;29;20042;-65
2021/12/16 14:50:59;;;;;;;4.75;3.10;;;;;;;;;;4933797;29;20043;-64
2021/12/16 14:53:27;;;;;;;4.25;2.70;;;;;;;;;;4930964;29;20111;-64
2021/12/16 14:55:55;;;;;;;4.72;2.92;;;;;;;;;;4929565;29;20027;-65
2021/12/16 14:58:21;;;;;;;4.70;2.97;;;;;;;;;;4930922;29;20094;-63
2021/12/16 15:00:52;;;;;;;7.00;4.35;;;;;;;;;;4930910;29;20039;-64
2021/12/16 15:03:19;;;;;;;9.93;5.75;;;;;;;;;;4930828;29;20083;-63
2021/12/16 15:05:50;;;;;;;11.32;6.40;;;;;;;;;;4930728;29;20131;-65
2021/12/16 15:08:23;;;;;;;9.75;6.30;;;;;;;;;;4930645;29;20051;-64
2021/12/16 15:10:48;;;;;;;11.48;6.78;;;;;;;;;;4930290;29;20206;-63
2021/12/16 15:13:24;;;;;;;13.05;7.30;;;;;;;;;;4930892;29;20578;-65
2021/12/16 15:42:56;;;;;;;12.32;7.15;;;;;;;;;;4947128;29;20098;-64
2021/12/16 15:45:24;;;;;;;14.55;7.63;;;;;;;;;;4948763;29;20150;-64
2021/12/16 15:47:51;;;;;;;12.48;7.50;;;;;;;;;;4949098;29;20020;-63
2021/12/16 15:50:18;;;;;;;13.48;7.78;;;;;;;;;;4947126;29;20471;-64
2021/12/16 15:52:45;;;;;;;12.30;7.75;;;;;;;;;;4946817;29;20031;-65
2021/12/16 15:55:15;;;;;;;15.88;7.88;;;;;;;;;;4951762;28;20038;-65
2021/12/16 15:57:41;;;;;;;12.88;7.57;;;;;;;;;;4965571;28;20035;-64
2021/12/16 16:00:09;;;;;;;16.40;8.55;;;;;;;;;;4960710;28;20055;-64
2021/12/16 16:02:34;;;;;;;15.52;8.27;;;;;;;;;;4967906;28;20549;-63
2021/12/16 16:04:59;;;;;;;16.88;9.35;;;;;;;;;;4965850;28;20026;-64
2021/12/16 16:07:24;;;;;;;14.63;8.45;;;;;;;;;;4964773;28;20093;-64
2021/12/16 16:09:51;;;;;;;17.80;9.63;;;;;;;;;;4967130;28;20126;-64
2021/12/16 16:12:17;;;;;;;12.85;7.82;;;;;;;;;;4967835;28;20051;-63
2021/12/16 16:14:46;;;;;;;15.95;9.20;;;;;;;;;;4967354;28;20038;-64
2021/12/16 16:17:17;;;;;;;16.65;10.05;;;;;;;;;;4978666;28;20458;-64
2021/12/16 16:19:43;;;;;;;17.58;9.52;;;;;;;;;;4990150;28;20046;-64
2021/12/16 16:22:09;;;;;;;18.55;9.88;;;;;;;;;;4995974;28;20022;-64
2021/12/16 16:24:36;;;;;;;15.77;9.35;;;;;;;;;;4989869;28;20029;-64
2021/12/16 16:27:03;;;;;;;17.70;9.68;;;;;;;;;;4995818;28;20034;-63
2021/12/16 16:29:31;;;;;;;18.73;10.45;;;;;;;;;;4989414;28;20038;-63
2021/12/16 16:31:56;;;;;;;18.45;9.77;;;;;;;;;;4989333;28;20030;-65
2021/12/16 16:34:23;;;;;;;16.27;9.20;;;;;;;;;;4989538;28;20038;-64
2021/12/16 16:36:50;;;;;;;15.63;9.60;;;;;;;;;;4996447;28;20026;-63
2021/12/16 16:39:18;;;;;;;19.17;11.07;;;;;;;;;;4989834;28;20164;-63
2021/12/16 16:41:45;;;;;;;20.40;11.40;;;;;;;;;;4989384;28;20041;-64
2021/12/16 16:44:13;;;;;;;20.08;11.25;;;;;;;;;;4989596;28;20045;-63
2021/12/16 16:46:44;;;;;;;20.38;12.15;;;;;;;;;;4991695;28;20097;-64
2021/12/16 16:49:13;;;;;;;21.45;12.77;;;;;;;;;;4993127;28;20038;-64
2021/12/16 16:51:42;;;;;;;22.75;12.07;;;;;;;;;;4989648;28;20124;-64
2021/12/16 16:54:09;;;;;;;24.40;12.27;;;;;;;;;;4984755;28;20022;-64
2021/12/16 16:56:40;;;;;;;25.55;14.23;;;;;;;;;;4989551;28;20106;-64
2021/12/16 16:59:06;;;;;;;26.02;14.10;;;;;;;;;;4989366;28;20109;-64
2021/12/16 17:01:32;;;;;;;25.65;13.80;;;;;;;;;;4989406;28;20081;-64
2021/12/16 17:03:59;;;;;;;21.77;12.75;;;;;;;;;;4988885;28;20414;-65
2021/12/16 17:06:26;;;;;;;23.23;13.05;;;;;;;;;;4988804;28;20050;-64
2021/12/16 17:08:55;;;;;;;25.13;14.48;;;;;;;;;;4990182;28;20037;-63
2021/12/16 17:11:22;;;;;;;25.17;14.13;;;;;;;;;;4988907;28;20042;-64
2021/12/16 17:18:42;;;;;;;23.58;13.50;;;;;;;;;;4989180;28;20033;-65
2021/12/16 17:21:16;;;;;;;25.05;14.90;;;;;;;;;;4994437;28;20030;-65
2021/12/16 17:23:41;;;;;;;26.23;15.00;;;;;;;;;;4989437;28;20053;-63
2021/12/16 17:26:19;;;;;;;25.02;14.25;;;;;;;;;;4988436;28;20022;-64
2021/12/16 17:28:49;;;;;;;25.45;14.52;;;;;;;;;;4989391;28;20048;-64
2021/12/16 17:31:14;;;;;;;27.40;14.98;;;;;;;;;;4989664;28;20033;-64
2021/12/16 17:33:39;;;;;;;29.77;16.70;;;;;;;;;;4988955;28;20038;-64
2021/12/16 17:36:04;;;;;;;28.58;15.10;;;;;;;;;;4990930;28;20069;-65
2021/12/16 17:38:30;;;;;;;25.58;15.43;;;;;;;;;;4989020;28;20424;-65
2021/12/16 17:40:57;;;;;;;33.45;18.25;;;;;;;;;;4988790;28;20544;-65
2021/12/16 17:43:24;;;;;;;34.00;19.30;;;;;;;;;;4988262;28;20052;-65
2021/12/16 17:45:59;;;;;;;27.42;15.90;;;;;;;;;;4988776;28;20053;-64
2021/12/16 17:48:27;;;;;;;30.85;17.13;;;;;;;;;;4990578;28;20045;-65
2021/12/16 17:50:54;;;;;;;32.53;18.85;;;;;;;;;;4995006;28;20041;-64
2021/12/16 17:53:20;;;;;;;32.20;17.30;;;;;;;;;;4992491;28;20113;-65
2021/12/16 17:55:54;;;;;;;34.72;17.85;;;;;;;;;;4992723;28;20110;-64
2021/12/16 17:58:27;;;;;;;34.15;18.13;;;;;;;;;;4992580;28;20116;-65
2021/12/16 18:00:55;;;;;;;35.03;18.40;;;;;;;;;;4992795;28;20030;-64
2021/12/16 18:03:24;;;;;;;31.17;17.13;;;;;;;;;;4992640;28;20022;-65
2021/12/16 18:05:52;;;;;;;33.17;18.17;;;;;;;;;;4989723;28;20134;-64